Time;durP1;ratioP1;P1;durP2;ratioP2;P2;SDS_P1;SDS_P2;PMS_P1;PMS_P2;Temp;Humidity;BMP_temperature;BMP_pressure;BME280_temperature;BME280_humidity;BME280_pressure;Samples;Min_cycle;Max_cycle;Signal;HPM_P1;HPM_P2
2023/12/10 00:01:23;;;;;;;24.93;4.40;;;9.20;99.90;;;;;;5073817;28;20174;-43
2023/12/10 00:07:16;;;;;;;23.97;3.27;;;9.20;99.90;;;;;;5073905;28;20171;-45
2023/12/10 00:09:42;;;;;;;26.97;4.13;;;9.20;99.90;;;;;;5071829;28;20217;-44
2023/12/10 00:12:08;;;;;;;33.00;4.90;;;9.20;99.90;;;;;;5055906;28;20191;-45
2023/12/10 00:14:34;;;;;;;22.90;4.20;;;9.20;99.90;;;;;;5073184;28;20219;-44
2023/12/10 00:17:00;;;;;;;24.07;4.70;;;9.20;99.90;;;;;;5073727;28;20201;-43
2023/12/10 00:19:27;;;;;;;33.07;4.60;;;9.20;99.90;;;;;;5073670;28;20218;-44
2023/12/10 00:21:54;;;;;;;31.07;4.73;;;9.20;99.90;;;;;;5071413;28;20249;-43
2023/12/10 00:24:22;;;;;;;22.73;3.97;;;9.30;99.90;;;;;;5055536;28;20704;-43
2023/12/10 00:26:52;;;;;;;38.03;5.43;;;9.30;99.90;;;;;;5073853;28;20188;-43
2023/12/10 00:29:21;;;;;;;26.47;4.70;;;9.30;99.90;;;;;;5073327;28;20207;-43
2023/12/10 00:31:47;;;;;;;26.27;3.70;;;9.30;99.90;;;;;;5055379;28;20194;-43
2023/12/10 00:34:50;;;;;;;27.07;5.67;;;9.30;99.90;;;;;;5054822;28;20663;-44
2023/12/10 00:37:16;;;;;;;27.27;4.70;;;9.30;99.90;;;;;;5073222;28;20208;-44
2023/12/10 00:39:45;;;;;;;24.33;3.93;;;9.30;99.90;;;;;;5073087;28;20226;-44
2023/12/10 00:42:13;;;;;;;28.13;4.97;;;9.30;99.90;;;;;;5073246;28;20191;-44
2023/12/10 00:44:39;;;;;;;24.03;4.50;;;9.30;99.90;;;;;;5073177;28;20192;-43
2023/12/10 00:47:05;;;;;;;30.07;5.67;;;9.30;99.90;;;;;;5055660;28;20180;-43
2023/12/10 00:49:34;;;;;;;25.33;4.50;;;9.30;99.90;;;;;;5073049;28;20195;-45
2023/12/10 00:52:03;;;;;;;31.40;6.27;;;9.40;99.90;;;;;;5073194;28;20187;-45
2023/12/10 00:58:13;;;;;;;22.47;4.43;;;9.30;99.90;;;;;;5073264;28;20171;-43
2023/12/10 01:00:41;;;;;;;13.23;1.80;;;9.40;99.90;;;;;;5071022;28;20259;-44
2023/12/10 01:03:08;;;;;;;23.10;3.70;;;9.40;99.90;;;;;;5072601;28;20559;-43
2023/12/10 01:08:57;;;;;;;30.70;6.23;;;9.40;99.90;;;;;;5073019;28;20276;-44
2023/12/10 01:11:23;;;;;;;17.00;3.43;;;9.40;99.90;;;;;;5055237;28;20273;-42
2023/12/10 01:13:49;;;;;;;30.43;4.37;;;9.40;99.90;;;;;;5073204;28;20616;-43
2023/12/10 01:16:16;;;;;;;23.20;3.43;;;9.40;99.90;;;;;;5055655;28;20202;-43
2023/12/10 01:18:44;;;;;;;18.63;2.47;;;9.40;99.90;;;;;;5055045;28;20176;-45
2023/12/10 01:21:12;;;;;;;20.10;3.87;;;9.40;99.90;;;;;;5072650;28;20180;-43
2023/12/10 01:23:39;;;;;;;25.57;4.07;;;9.40;99.90;;;;;;5072886;28;20172;-44
2023/12/10 01:26:45;;;;;;;31.13;4.33;;;9.40;99.90;;;;;;5072854;28;20184;-45
2023/12/10 01:29:11;;;;;;;18.87;2.50;;;9.40;99.90;;;;;;5072740;28;20206;-44
2023/12/10 01:31:40;;;;;;;31.53;5.30;;;9.40;99.90;;;;;;5054771;28;20243;-43
2023/12/10 01:34:06;;;;;;;16.00;2.90;;;9.40;99.90;;;;;;5073083;28;20181;-43
2023/12/10 01:36:34;;;;;;;28.20;3.70;;;9.40;99.90;;;;;;5054902;28;20209;-44
2023/12/10 01:38:59;;;;;;;20.83;4.40;;;9.40;99.90;;;;;;5072634;28;20281;-44
2023/12/10 01:41:25;;;;;;;30.70;5.03;;;9.40;99.90;;;;;;5072838;28;20258;-43
2023/12/10 01:43:53;;;;;;;13.90;3.27;;;9.40;99.90;;;;;;5074459;28;20185;-45
2023/12/10 01:46:23;;;;;;;16.03;2.80;;;9.40;99.90;;;;;;5076100;28;20179;-45
2023/12/10 01:48:52;;;;;;;33.43;4.17;;;9.40;99.90;;;;;;5076473;28;20294;-44
2023/12/10 01:51:19;;;;;;;23.80;4.00;;;9.40;99.90;;;;;;5076521;28;20224;-45
2023/12/10 01:53:45;;;;;;;7.90;2.83;;;9.30;99.90;;;;;;5058222;28;20186;-45
2023/12/10 01:56:12;;;;;;;29.33;3.93;;;9.30;99.90;;;;;;5075215;28;20269;-44
2023/12/10 01:58:39;;;;;;;26.63;4.00;;;9.30;99.90;;;;;;5076218;28;20178;-43
2023/12/10 02:01:07;;;;;;;12.57;2.73;;;9.30;99.90;;;;;;5058528;28;20181;-43
2023/12/10 02:03:33;;;;;;;24.23;4.30;;;9.30;99.90;;;;;;5076202;28;20544;-44
2023/12/10 02:06:06;;;;;;;16.83;3.87;;;9.30;99.90;;;;;;5075272;28;20203;-44
2023/12/10 02:08:32;;;;;;;10.27;2.20;;;9.30;99.90;;;;;;5059178;28;20186;-43
2023/12/10 02:10:59;;;;;;;20.13;3.33;;;9.30;99.90;;;;;;5075834;28;20184;-44
2023/12/10 02:13:26;;;;;;;30.17;2.97;;;9.40;99.90;;;;;;5076048;28;20188;-44
2023/12/10 02:15:51;;;;;;;29.07;3.57;;;9.40;99.90;;;;;;5075896;28;20318;-45
2023/12/10 02:18:21;;;;;;;19.00;3.87;;;9.40;99.90;;;;;;5075646;28;20175;-45
2023/12/10 02:20:48;;;;;;;7.60;2.23;;;9.40;99.90;;;;;;5075915;28;20201;-44
2023/12/10 02:23:39;;;;;;;14.33;2.30;;;9.40;99.90;;;;;;5075625;28;20182;-44
2023/12/10 02:26:09;;;;;;;17.50;3.20;;;9.30;99.90;;;;;;5075195;28;20366;-43
2023/12/10 02:28:35;;;;;;;16.63;3.03;;;9.30;99.90;;;;;;5075737;28;20196;-45
2023/12/10 02:31:04;;;;;;;11.73;2.73;;;9.30;99.90;;;;;;5075511;28;20706;-44
2023/12/10 02:33:31;;;;;;;15.63;2.37;;;9.30;99.90;;;;;;5075460;28;20243;-46
2023/12/10 02:35:58;;;;;;;24.43;3.80;;;9.30;99.90;;;;;;5073569;28;20217;-46
2023/12/10 02:38:30;;;;;;;19.43;3.47;;;9.40;99.90;;;;;;5057496;28;20279;-44
2023/12/10 02:40:55;;;;;;;25.27;4.07;;;9.40;99.90;;;;;;5075496;28;20170;-44
2023/12/10 02:43:23;;;;;;;22.27;3.70;;;9.40;99.90;;;;;;5058029;28;20178;-43
2023/12/10 02:45:54;;;;;;;12.23;2.73;;;9.30;99.90;;;;;;5075323;28;20627;-43
2023/12/10 02:48:22;;;;;;;19.73;3.07;;;9.30;99.90;;;;;;5075197;28;20732;-44
2023/12/10 02:50:50;;;;;;;16.27;2.93;;;9.30;99.90;;;;;;5075376;28;20201;-44
2023/12/10 02:53:16;;;;;;;19.70;2.50;;;9.30;99.90;;;;;;5057430;28;20189;-45
2023/12/10 02:55:42;;;;;;;14.70;2.80;;;9.30;99.90;;;;;;5076366;28;20204;-43
2023/12/10 02:58:08;;;;;;;19.17;3.47;;;9.20;99.90;;;;;;5085492;28;20651;-45
2023/12/10 03:00:34;;;;;;;18.57;3.57;;;9.20;99.90;;;;;;5085763;28;20202;-43
2023/12/10 03:03:00;;;;;;;19.10;3.40;;;9.20;99.90;;;;;;5083236;28;20183;-45
2023/12/10 03:05:26;;;;;;;16.00;3.13;;;9.10;99.90;;;;;;5082346;28;20184;-45
2023/12/10 03:07:53;;;;;;;16.07;2.23;;;9.20;99.90;;;;;;5064644;28;20229;-43
2023/12/10 03:10:19;;;;;;;21.27;3.70;;;9.10;99.90;;;;;;5056965;28;20671;-45
2023/12/10 03:12:45;;;;;;;16.43;3.47;;;9.00;99.90;;;;;;5074634;28;20178;-43
2023/12/10 03:15:18;;;;;;;10.90;1.90;;;9.00;99.90;;;;;;5074907;28;20231;-44
2023/12/10 03:17:52;;;;;;;11.47;1.63;;;9.00;99.90;;;;;;5074413;28;20270;-43
2023/12/10 03:20:19;;;;;;;16.47;3.60;;;9.00;99.90;;;;;;5074398;28;20199;-43
2023/12/10 03:22:50;;;;;;;17.27;3.10;;;8.90;99.90;;;;;;5074453;28;20272;-43
2023/12/10 03:25:19;;;;;;;3.70;1.33;;;8.80;99.90;;;;;;5074854;28;20178;-44
2023/12/10 03:27:45;;;;;;;14.50;2.80;;;8.80;99.90;;;;;;5074319;28;20224;-44
2023/12/10 03:30:10;;;;;;;14.30;2.63;;;8.70;99.90;;;;;;5074183;28;20200;-44
2023/12/10 03:32:42;;;;;;;18.83;3.83;;;8.70;99.90;;;;;;5074051;28;20248;-42
2023/12/10 03:35:08;;;;;;;18.10;3.07;;;8.60;99.90;;;;;;5074152;28;20685;-43
2023/12/10 03:37:36;;;;;;;20.17;2.47;;;8.60;99.90;;;;;;5074077;28;20291;-44
2023/12/10 03:40:03;;;;;;;20.20;3.40;;;8.50;99.90;;;;;;5073892;28;20257;-43
2023/12/10 03:42:29;;;;;;;13.47;3.03;;;8.50;99.90;;;;;;5074017;28;20205;-42
2023/12/10 03:44:59;;;;;;;12.37;1.73;;;8.50;99.90;;;;;;5074085;28;20209;-43
2023/12/10 03:47:25;;;;;;;16.40;2.13;;;8.50;99.90;;;;;;5073887;28;20643;-44
2023/12/10 03:49:52;;;;;;;17.43;3.13;;;8.50;99.90;;;;;;5074064;28;20281;-44
2023/12/10 03:52:21;;;;;;;25.63;4.17;;;8.50;99.90;;;;;;5074141;28;20173;-42
2023/12/10 03:54:48;;;;;;;21.13;2.97;;;8.40;99.90;;;;;;5073785;28;20250;-44
2023/12/10 03:57:15;;;;;;;14.53;2.50;;;8.70;99.90;;;;;;5073774;28;20189;-43
2023/12/10 03:59:43;;;;;;;18.47;4.07;;;8.40;99.90;;;;;;5073714;28;20201;-45
2023/12/10 04:02:09;;;;;;;13.87;3.10;;;8.40;99.90;;;;;;5073766;28;20173;-43
2023/12/10 04:04:36;;;;;;;16.00;2.93;;;8.40;99.90;;;;;;5074009;28;20695;-45
2023/12/10 04:07:02;;;;;;;8.47;2.13;;;8.40;99.90;;;;;;5073333;28;20268;-44
2023/12/10 04:09:27;;;;;;;10.60;2.43;;;8.40;99.90;;;;;;5073563;28;20243;-45
2023/12/10 04:11:56;;;;;;;19.37;4.17;;;8.40;99.90;;;;;;5073542;28;20191;-44
2023/12/10 04:14:25;;;;;;;12.57;2.50;;;8.40;99.90;;;;;;5072336;28;20201;-44
2023/12/10 04:16:50;;;;;;;21.47;3.80;;;8.40;99.90;;;;;;5074247;28;20329;-45
2023/12/10 04:19:16;;;;;;;18.43;2.93;;;8.40;99.90;;;;;;5074081;28;20271;-45
2023/12/10 04:21:42;;;;;;;23.70;3.90;;;8.40;99.90;;;;;;5073499;28;20246;-42
2023/12/10 04:24:08;;;;;;;22.63;4.43;;;8.40;99.90;;;;;;5073429;28;20263;-45
2023/12/10 04:26:36;;;;;;;16.70;2.87;;;8.40;99.90;;;;;;5073587;28;20176;-44
2023/12/10 04:29:08;;;;;;;17.03;3.20;;;8.30;99.90;;;;;;5055405;28;20199;-45
2023/12/10 04:31:37;;;;;;;18.40;4.30;;;8.30;99.90;;;;;;5072672;28;20619;-45
2023/12/10 04:34:02;;;;;;;23.80;4.47;;;8.40;99.90;;;;;;5073398;28;20256;-43
2023/12/10 04:36:31;;;;;;;16.07;2.70;;;8.40;99.90;;;;;;5055770;28;20759;-45
2023/12/10 04:39:01;;;;;;;27.97;4.47;;;8.40;99.90;;;;;;5073277;28;20199;-44
2023/12/10 04:41:33;;;;;;;22.93;3.67;;;8.40;99.90;;;;;;5073289;28;20287;-44
2023/12/10 04:43:58;;;;;;;14.07;3.37;;;8.40;99.90;;;;;;5073446;28;20188;-46
2023/12/10 04:46:24;;;;;;;14.80;3.03;;;8.50;99.90;;;;;;5073254;28;20175;-45
2023/12/10 04:48:55;;;;;;;12.00;2.97;;;8.50;99.90;;;;;;5073477;28;20199;-44
2023/12/10 04:51:21;;;;;;;14.93;2.63;;;8.50;99.90;;;;;;5073928;28;20171;-44
2023/12/10 04:53:48;;;;;;;18.90;3.77;;;8.50;99.90;;;;;;5073555;28;20238;-45
2023/12/10 04:56:17;;;;;;;25.60;3.47;;;8.50;99.90;;;;;;5073585;28;20211;-44
2023/12/10 04:58:45;;;;;;;17.10;3.33;;;8.60;99.90;;;;;;5055446;28;20274;-46
2023/12/10 05:01:12;;;;;;;22.07;1.77;;;8.50;99.90;;;;;;5073459;28;20689;-44
2023/12/10 05:03:40;;;;;;;14.60;2.97;;;8.60;99.90;;;;;;5055165;28;20665;-43
2023/12/10 05:06:09;;;;;;;25.13;4.53;;;8.60;99.90;;;;;;5073208;28;20214;-44
2023/12/10 05:08:38;;;;;;;15.47;3.10;;;8.60;99.90;;;;;;5055769;28;20211;-42
2023/12/10 05:11:05;;;;;;;14.03;2.97;;;8.60;99.90;;;;;;5055358;28;20186;-43
2023/12/10 05:13:34;;;;;;;18.80;3.70;;;8.70;99.90;;;;;;5073386;28;20176;-44
2023/12/10 05:15:59;;;;;;;12.50;2.03;;;8.70;99.90;;;;;;5073066;28;20221;-44
2023/12/10 05:18:29;;;;;;;20.47;3.63;;;8.70;99.90;;;;;;5074219;28;20173;-45
2023/12/10 05:20:59;;;;;;;9.70;1.37;;;8.70;99.90;;;;;;5058848;28;20718;-44
2023/12/10 05:23:25;;;;;;;14.13;2.20;;;8.70;99.90;;;;;;5076758;28;20178;-44
2023/12/10 05:25:50;;;;;;;18.03;3.03;;;8.70;99.90;;;;;;5076818;28;20183;-44
2023/12/10 05:28:16;;;;;;;23.97;2.90;;;8.80;99.90;;;;;;5059143;28;20197;-41
2023/12/10 05:30:42;;;;;;;15.97;3.00;;;8.80;99.90;;;;;;5076505;28;20193;-42
2023/12/10 05:33:07;;;;;;;16.90;4.13;;;8.80;99.90;;;;;;5076801;28;20187;-44
2023/12/10 05:35:36;;;;;;;14.30;3.03;;;8.80;99.90;;;;;;5076441;28;20261;-44
2023/12/10 05:38:07;;;;;;;11.27;2.47;;;8.80;99.90;;;;;;5076788;28;20618;-45
2023/12/10 05:40:37;;;;;;;12.80;1.80;;;8.80;99.90;;;;;;5076470;28;20214;-43
2023/12/10 05:43:06;;;;;;;19.67;3.80;;;8.80;99.90;;;;;;5076708;28;20159;-43
2023/12/10 05:45:37;;;;;;;16.73;3.13;;;8.80;99.90;;;;;;5076332;28;20226;-43
2023/12/10 05:48:04;;;;;;;10.57;2.30;;;8.80;99.90;;;;;;5076366;28;20642;-43
2023/12/10 05:50:30;;;;;;;22.10;2.70;;;8.80;99.90;;;;;;5076137;28;20246;-45
2023/12/10 05:52:56;;;;;;;9.27;1.93;;;8.80;99.90;;;;;;5076461;28;20613;-44
2023/12/10 05:55:22;;;;;;;13.07;3.10;;;8.80;99.90;;;;;;5058575;28;20180;-44
2023/12/10 05:57:47;;;;;;;18.60;2.47;;;8.90;99.90;;;;;;5076350;28;20196;-42
2023/12/10 06:00:17;;;;;;;8.57;2.10;;;8.90;99.90;;;;;;5058325;28;20200;-43
2023/12/10 06:02:44;;;;;;;26.73;4.07;;;8.90;99.90;;;;;;5075939;28;20179;-44
2023/12/10 06:05:10;;;;;;;19.93;3.40;;;8.90;99.90;;;;;;5076041;28;20703;-42
2023/12/10 06:07:35;;;;;;;19.60;2.90;;;8.90;99.90;;;;;;5075790;28;20184;-46
2023/12/10 06:10:02;;;;;;;15.40;2.10;;;8.90;99.90;;;;;;5075910;28;20227;-44
2023/12/10 06:12:28;;;;;;;14.67;2.13;;;8.90;99.90;;;;;;5057913;28;20266;-44
2023/12/10 06:14:55;;;;;;;7.73;2.13;;;8.90;99.90;;;;;;5076102;28;20606;-42
2023/12/10 06:17:21;;;;;;;9.33;2.37;;;9.00;99.90;;;;;;5075716;28;20208;-43
2023/12/10 06:23:15;;;;;;;10.83;2.27;;;8.90;99.90;;;;;;5075641;28;20251;-45
2023/12/10 06:25:44;;;;;;;12.17;2.07;;;8.90;99.90;;;;;;5057815;28;20188;-44
2023/12/10 06:28:12;;;;;;;16.00;2.57;;;8.90;99.90;;;;;;5075498;28;20715;-46
2023/12/10 06:30:38;;;;;;;24.87;4.00;;;8.90;99.90;;;;;;5075397;28;20253;-43
2023/12/10 06:33:04;;;;;;;18.53;3.50;;;8.90;99.90;;;;;;5075831;28;20180;-43
2023/12/10 06:35:29;;;;;;;15.67;2.50;;;8.90;99.90;;;;;;5058005;28;20177;-44
2023/12/10 06:37:55;;;;;;;14.50;2.53;;;8.90;99.90;;;;;;5057503;28;20258;-44
2023/12/10 06:40:24;;;;;;;8.03;2.50;;;8.90;99.90;;;;;;5057352;28;20724;-44
2023/12/10 06:42:49;;;;;;;18.50;3.00;;;8.90;99.90;;;;;;5075573;28;20680;-46
2023/12/10 06:45:15;;;;;;;24.03;3.07;;;8.90;99.90;;;;;;5075525;28;20179;-43
2023/12/10 06:47:42;;;;;;;13.50;1.97;;;8.90;99.90;;;;;;5074319;28;20683;-43
2023/12/10 06:50:09;;;;;;;12.63;2.77;;;8.90;99.90;;;;;;5075191;28;20223;-45
2023/12/10 06:52:40;;;;;;;19.67;3.27;;;8.90;99.90;;;;;;5057303;28;20189;-45
2023/12/10 06:55:09;;;;;;;14.73;3.47;;;9.00;99.90;;;;;;5075006;28;20189;-44
2023/12/10 06:57:37;;;;;;;12.20;2.67;;;9.00;99.90;;;;;;5070272;28;20224;-43
2023/12/10 07:00:05;;;;;;;20.87;2.87;;;9.00;99.90;;;;;;5074994;28;20655;-43
2023/12/10 07:02:31;;;;;;;4.37;1.67;;;9.00;99.90;;;;;;5041095;28;20294;-45
2023/12/10 07:04:58;;;;;;;22.43;3.57;;;9.00;99.90;;;;;;5075107;28;20267;-44
2023/12/10 07:07:24;;;;;;;10.83;2.53;;;9.00;99.90;;;;;;5057902;28;20184;-45
2023/12/10 07:09:53;;;;;;;10.67;2.70;;;9.00;99.90;;;;;;5057482;28;20679;-45
2023/12/10 07:12:19;;;;;;;13.20;2.60;;;9.00;99.90;;;;;;5074806;28;20230;-44
2023/12/10 07:14:44;;;;;;;7.03;2.00;;;9.00;99.90;;;;;;5074856;28;20171;-44
2023/12/10 07:17:10;;;;;;;15.43;2.60;;;9.00;99.90;;;;;;5057205;28;20628;-44
2023/12/10 07:19:45;;;;;;;22.23;3.70;;;9.00;99.90;;;;;;5074686;28;20681;-47
2023/12/10 07:22:14;;;;;;;7.63;2.67;;;9.00;99.90;;;;;;5075430;28;20227;-45
2023/12/10 07:24:40;;;;;;;11.27;2.03;;;9.00;99.90;;;;;;5074664;28;20180;-44
2023/12/10 07:27:08;;;;;;;21.17;3.23;;;9.00;99.90;;;;;;5056920;28;20215;-43
2023/12/10 07:29:35;;;;;;;15.50;2.13;;;9.10;99.90;;;;;;5074508;28;20237;-44
2023/12/10 07:32:01;;;;;;;13.13;1.97;;;9.00;99.90;;;;;;5075400;28;20193;-43
2023/12/10 07:34:27;;;;;;;11.93;2.30;;;9.00;99.90;;;;;;5074770;28;20193;-45
2023/12/10 07:36:52;;;;;;;11.10;2.33;;;9.00;99.90;;;;;;5074737;28;20207;-43
2023/12/10 07:39:18;;;;;;;13.50;2.50;;;9.00;99.90;;;;;;5075072;28;20618;-44
2023/12/10 07:41:44;;;;;;;9.30;2.17;;;9.00;99.90;;;;;;5073758;28;20195;-44
2023/12/10 07:44:10;;;;;;;12.27;2.77;;;9.10;99.90;;;;;;5074918;28;20226;-45
2023/12/10 07:46:38;;;;;;;10.20;2.27;;;9.10;99.90;;;;;;5075018;28;20418;-44
2023/12/10 07:49:04;;;;;;;14.37;2.87;;;9.10;99.90;;;;;;5074756;28;20204;-43
2023/12/10 07:51:31;;;;;;;6.97;1.87;;;9.10;99.90;;;;;;5073934;28;20240;-44
2023/12/10 07:54:03;;;;;;;25.17;3.93;;;9.10;99.90;;;;;;5074232;28;20182;-43
2023/12/10 07:56:32;;;;;;;17.53;2.70;;;9.10;99.90;;;;;;5074102;28;20203;-45
2023/12/10 07:58:58;;;;;;;12.20;2.17;;;9.10;99.90;;;;;;5074473;28;20204;-43
2023/12/10 08:01:30;;;;;;;18.57;3.80;;;9.10;99.90;;;;;;5074187;28;20191;-46
2023/12/10 08:04:05;;;;;;;11.40;2.00;;;9.10;99.90;;;;;;5073766;28;20674;-43
2023/12/10 08:06:35;;;;;;;20.83;2.30;;;9.10;99.90;;;;;;5074448;28;20545;-43
2023/12/10 08:09:04;;;;;;;12.27;2.53;;;9.00;99.90;;;;;;5073736;28;20196;-44
2023/12/10 08:11:31;;;;;;;13.73;2.37;;;9.00;99.90;;;;;;5073728;28;20201;-42
2023/12/10 08:14:02;;;;;;;6.07;1.73;;;9.00;99.90;;;;;;5073456;28;20730;-43
2023/12/10 08:16:28;;;;;;;25.53;3.97;;;9.00;99.90;;;;;;5073407;28;20207;-43
2023/12/10 08:18:54;;;;;;;10.10;1.30;;;9.00;99.90;;;;;;5073610;28;20300;-43
2023/12/10 08:21:20;;;;;;;14.27;2.20;;;9.10;99.90;;;;;;5073598;28;20187;-43
2023/12/10 08:23:49;;;;;;;14.37;2.37;;;9.00;99.90;;;;;;5073852;28;20181;-44
2023/12/10 08:26:16;;;;;;;12.60;2.37;;;9.10;99.90;;;;;;5073521;28;20186;-43
2023/12/10 08:28:44;;;;;;;15.40;2.53;;;9.00;99.90;;;;;;5073417;28;20727;-42
2023/12/10 08:31:10;;;;;;;13.60;3.03;;;9.10;99.90;;;;;;5073895;28;20187;-44
2023/12/10 08:33:35;;;;;;;15.53;2.40;;;9.00;99.90;;;;;;5073395;28;20178;-42
2023/12/10 08:36:04;;;;;;;23.70;3.27;;;9.00;99.90;;;;;;5073604;28;20207;-44
2023/12/10 08:38:30;;;;;;;9.17;1.87;;;9.00;99.90;;;;;;5073554;28;20176;-43
2023/12/10 08:41:02;;;;;;;13.77;2.63;;;9.00;99.90;;;;;;5073225;28;20172;-44
2023/12/10 08:43:30;;;;;;;11.60;3.20;;;9.10;99.90;;;;;;5073230;28;20180;-43
2023/12/10 08:45:58;;;;;;;13.13;2.70;;;9.10;99.90;;;;;;5073426;28;20630;-44
2023/12/10 08:48:23;;;;;;;15.70;2.43;;;9.10;99.90;;;;;;5073403;28;20177;-45
2023/12/10 08:50:49;;;;;;;10.30;2.80;;;9.10;99.90;;;;;;5073207;28;20535;-42
2023/12/10 08:53:19;;;;;;;10.43;2.10;;;9.10;99.90;;;;;;5075685;28;20189;-45
2023/12/10 08:55:48;;;;;;;16.73;2.60;;;9.10;99.90;;;;;;5077339;28;20203;-44
2023/12/10 08:59:10;;;;;;;18.57;2.90;;;9.10;99.90;;;;;;5057088;28;20677;-44
2023/12/10 09:01:38;;;;;;;18.80;3.03;;;9.10;99.90;;;;;;5077177;28;20223;-43
2023/12/10 09:04:10;;;;;;;9.90;1.90;;;9.10;99.90;;;;;;5059351;28;20605;-43
2023/12/10 09:06:36;;;;;;;11.37;2.23;;;9.10;99.90;;;;;;5077549;28;20617;-42
2023/12/10 09:09:39;;;;;;;18.57;2.93;;;9.10;99.90;;;;;;5077361;28;20210;-43
2023/12/10 09:12:10;;;;;;;25.53;4.07;;;9.20;99.90;;;;;;5077125;28;20187;-45
2023/12/10 09:14:39;;;;;;;24.33;3.93;;;9.10;99.90;;;;;;5059270;28;20757;-45
2023/12/10 09:17:05;;;;;;;19.40;3.13;;;9.20;99.90;;;;;;5077002;28;20222;-42
2023/12/10 09:19:32;;;;;;;14.67;4.53;;;9.20;99.90;;;;;;5076836;28;20195;-44
2023/12/10 09:21:59;;;;;;;17.03;3.03;;;9.20;99.90;;;;;;5077345;28;20282;-44
2023/12/10 09:24:26;;;;;;;19.90;3.23;;;9.30;99.90;;;;;;5077220;28;20179;-45
2023/12/10 09:27:00;;;;;;;15.57;2.73;;;9.30;99.90;;;;;;5076953;28;20271;-45
2023/12/10 09:29:25;;;;;;;19.30;3.33;;;9.30;99.90;;;;;;5077381;28;20656;-43
2023/12/10 09:31:51;;;;;;;17.03;3.43;;;9.40;99.90;;;;;;5076964;28;20182;-45
2023/12/10 09:34:17;;;;;;;17.57;3.27;;;9.50;99.90;;;;;;5076612;28;20185;-43
2023/12/10 09:36:42;;;;;;;21.07;3.13;;;9.50;99.90;;;;;;5076565;28;20245;-43
2023/12/10 09:39:11;;;;;;;14.97;4.23;;;9.70;99.90;;;;;;5059218;28;20202;-44
2023/12/10 09:41:43;;;;;;;16.20;2.77;;;9.70;99.90;;;;;;5076735;28;20187;-44
2023/12/10 09:44:09;;;;;;;14.43;3.73;;;9.80;99.90;;;;;;5077205;28;20562;-44
2023/12/10 09:46:34;;;;;;;19.73;3.57;;;9.80;99.90;;;;;;5077420;28;20205;-45
2023/12/10 09:49:00;;;;;;;16.33;3.47;;;9.80;99.90;;;;;;5077086;28;20280;-48
2023/12/10 09:51:28;;;;;;;16.40;3.20;;;9.90;99.90;;;;;;5076444;28;20180;-48
2023/12/10 09:54:04;;;;;;;29.13;2.73;;;9.90;99.90;;;;;;5075752;28;20614;-47
2023/12/10 09:56:33;;;;;;;17.03;2.30;;;9.90;99.90;;;;;;5058368;28;20544;-48
2023/12/10 09:58:58;;;;;;;20.70;3.33;;;9.90;99.90;;;;;;5075672;28;20218;-48
2023/12/10 10:01:24;;;;;;;18.00;2.73;;;9.90;99.90;;;;;;5076179;28;20539;-48
2023/12/10 10:03:50;;;;;;;25.40;3.83;;;9.90;99.90;;;;;;5075506;28;20704;-48
2023/12/10 10:06:17;;;;;;;16.10;3.40;;;9.90;99.90;;;;;;5075327;28;20221;-47
2023/12/10 10:08:46;;;;;;;20.63;3.70;;;9.90;99.90;;;;;;5075463;28;20282;-49
2023/12/10 10:11:11;;;;;;;14.23;2.47;;;9.90;99.90;;;;;;5075468;28;20219;-48
2023/12/10 10:13:37;;;;;;;22.27;3.67;;;9.90;99.90;;;;;;5076041;28;20216;-48
2023/12/10 10:16:45;;;;;;;20.07;3.47;;;10.00;99.90;;;;;;5058086;28;20191;-48
2023/12/10 10:19:11;;;;;;;24.00;3.80;;;10.00;99.90;;;;;;5075894;28;20241;-48
2023/12/10 10:25:01;;;;;;;12.77;2.87;;;10.10;99.90;;;;;;5075661;28;20168;-47
2023/12/10 10:27:36;;;;;;;19.37;4.03;;;10.20;99.90;;;;;;5075664;28;20558;-48
2023/12/10 10:30:51;;;;;;;32.43;5.07;;;10.20;99.90;;;;;;5076018;28;20296;-48
2023/12/10 10:33:25;;;;;;;23.93;5.30;;;10.30;99.90;;;;;;5076510;28;20542;-47
2023/12/10 10:35:53;;;;;;;25.30;4.27;;;10.30;99.90;;;;;;5075643;28;20194;-48
2023/12/10 10:38:23;;;;;;;30.00;4.43;;;10.30;99.90;;;;;;5075411;28;20662;-47
2023/12/10 10:40:53;;;;;;;26.47;4.10;;;10.30;99.90;;;;;;5075180;28;20225;-47
2023/12/10 10:43:18;;;;;;;26.00;3.80;;;10.40;99.90;;;;;;5075253;28;20217;-47
2023/12/10 10:45:47;;;;;;;24.70;4.37;;;10.40;99.90;;;;;;5075346;28;20185;-49
2023/12/10 10:48:17;;;;;;;19.50;3.53;;;10.50;99.90;;;;;;5075317;28;20210;-47
2023/12/10 10:50:44;;;;;;;32.47;5.73;;;10.50;99.90;;;;;;5057295;28;20203;-46
2023/12/10 10:53:12;;;;;;;31.43;4.57;;;10.50;99.90;;;;;;5075387;28;20190;-47
2023/12/10 10:55:40;;;;;;;27.57;4.27;;;10.50;99.90;;;;;;5057265;28;20655;-48
2023/12/10 10:58:27;;;;;;;19.03;3.63;;;10.50;99.90;;;;;;5075086;28;20678;-48
2023/12/10 11:00:55;;;;;;;20.13;3.57;;;10.50;99.90;;;;;;5074990;28;20183;-47
2023/12/10 11:03:26;;;;;;;23.57;4.60;;;10.50;99.90;;;;;;5075124;28;20349;-49
2023/12/10 11:06:19;;;;;;;23.47;4.00;;;10.50;99.90;;;;;;5044851;28;20209;-47
2023/12/10 11:08:59;;;;;;;20.63;3.93;;;10.60;99.90;;;;;;5056826;28;20297;-49
2023/12/10 11:11:28;;;;;;;20.60;3.17;;;10.70;99.90;;;;;;5056985;28;20186;-48
2023/12/10 11:13:54;;;;;;;21.30;3.47;;;10.80;99.90;;;;;;5075076;28;20187;-47
2023/12/10 11:16:21;;;;;;;22.67;4.20;;;10.70;99.90;;;;;;5074122;28;20559;-48
2023/12/10 11:18:59;;;;;;;20.07;2.07;;;10.70;99.90;;;;;;5056915;28;20207;-48
2023/12/10 11:24:50;;;;;;;7.67;2.07;;;10.60;99.90;;;;;;5074698;28;20174;-48
2023/12/10 11:27:16;;;;;;;20.97;4.03;;;10.50;99.90;;;;;;5074358;28;20183;-48
2023/12/10 11:29:42;;;;;;;21.30;3.73;;;10.50;99.90;;;;;;5074754;28;20204;-49
2023/12/10 11:32:10;;;;;;;19.67;3.87;;;10.50;99.90;;;;;;5074551;28;20243;-48
2023/12/10 11:34:37;;;;;;;22.33;4.03;;;10.50;99.90;;;;;;5075386;28;20651;-48
2023/12/10 11:37:04;;;;;;;28.20;4.43;;;10.50;99.90;;;;;;5074493;28;20294;-49
2023/12/10 11:39:30;;;;;;;22.90;4.00;;;10.60;99.90;;;;;;5074088;28;20222;-48
2023/12/10 11:41:55;;;;;;;26.33;4.97;;;10.60;99.90;;;;;;5056352;28;20183;-48
2023/12/10 11:44:25;;;;;;;27.43;4.87;;;10.60;99.90;;;;;;5074021;28;20191;-48
2023/12/10 11:46:52;;;;;;;33.37;5.67;;;10.70;99.90;;;;;;5074697;28;20179;-49
2023/12/10 11:49:18;;;;;;;18.67;3.63;;;10.70;99.90;;;;;;5073997;28;20611;-48
2023/12/10 11:51:44;;;;;;;30.03;4.30;;;10.70;99.90;;;;;;5074043;28;20241;-48
2023/12/10 11:54:11;;;;;;;29.30;5.00;;;10.70;99.90;;;;;;5074322;28;20188;-48
2023/12/10 11:56:43;;;;;;;13.63;2.70;;;10.70;99.90;;;;;;5073863;28;20282;-49
2023/12/10 11:59:15;;;;;;;26.40;4.80;;;10.60;99.90;;;;;;5072915;28;20207;-49
2023/12/10 12:01:44;;;;;;;24.10;3.87;;;10.60;99.90;;;;;;5074256;28;20617;-48
2023/12/10 12:04:15;;;;;;;24.80;4.57;;;10.60;99.90;;;;;;5073519;28;20179;-48
2023/12/10 12:07:03;;;;;;;30.33;4.73;;;10.60;99.90;;;;;;5074290;28;20542;-48
2023/12/10 12:09:32;;;;;;;28.13;4.53;;;10.70;99.90;;;;;;5055683;28;20207;-48
2023/12/10 12:11:58;;;;;;;17.87;4.57;;;10.70;99.90;;;;;;5073933;28;20655;-48
2023/12/10 12:14:24;;;;;;;26.80;4.63;;;10.70;99.90;;;;;;5073612;28;20184;-50
2023/12/10 12:16:49;;;;;;;27.57;4.90;;;10.70;99.90;;;;;;5073523;28;20256;-49
2023/12/10 12:19:34;;;;;;;18.77;3.80;;;10.70;99.90;;;;;;5056108;28;20200;-49
2023/12/10 12:22:00;;;;;;;34.07;5.33;;;10.70;99.90;;;;;;5073763;28;20254;-50
2023/12/10 12:24:26;;;;;;;27.70;4.33;;;10.70;99.90;;;;;;5073815;28;20678;-49
2023/12/10 12:26:55;;;;;;;31.30;4.80;;;10.70;99.90;;;;;;5071501;28;20195;-50
2023/12/10 12:29:21;;;;;;;36.43;5.27;;;10.70;99.90;;;;;;5073595;28;20199;-49
2023/12/10 12:32:36;;;;;;;37.43;5.50;;;10.70;99.90;;;;;;5073953;28;20252;-49
2023/12/10 12:35:05;;;;;;;30.37;5.17;;;10.70;99.90;;;;;;5073684;28;20567;-50
2023/12/10 12:37:31;;;;;;;26.37;5.00;;;10.70;99.90;;;;;;5073884;28;20613;-49
2023/12/10 12:40:01;;;;;;;20.53;4.20;;;10.70;99.90;;;;;;5055887;28;20223;-48
2023/12/10 12:42:27;;;;;;;26.70;4.60;;;10.70;99.90;;;;;;5055641;28;20188;-48
2023/12/10 12:44:52;;;;;;;23.13;4.87;;;10.70;99.90;;;;;;5073542;28;20202;-48
2023/12/10 12:47:24;;;;;;;29.90;4.47;;;10.70;99.90;;;;;;5056122;28;20183;-49
2023/12/10 12:49:50;;;;;;;27.27;4.47;;;10.70;99.90;;;;;;5073884;28;20272;-49
2023/12/10 12:52:16;;;;;;;22.37;4.17;;;10.70;99.90;;;;;;5073808;28;20679;-49
2023/12/10 12:54:42;;;;;;;26.13;4.40;;;10.70;99.90;;;;;;5073511;28;20172;-49
2023/12/10 12:57:13;;;;;;;27.30;3.87;;;10.70;99.90;;;;;;5073461;28;20207;-49
2023/12/10 12:59:42;;;;;;;31.53;5.17;;;10.80;99.90;;;;;;5073582;28;20199;-48
2023/12/10 13:02:08;;;;;;;30.53;4.97;;;10.70;99.90;;;;;;5073159;28;20548;-48
2023/12/10 13:04:34;;;;;;;26.50;4.37;;;10.70;99.90;;;;;;5072447;28;20702;-49
2023/12/10 13:07:01;;;;;;;20.53;4.40;;;10.70;99.90;;;;;;5073051;28;20190;-48
2023/12/10 13:09:31;;;;;;;31.03;4.90;;;10.70;99.90;;;;;;5073059;28;20666;-48
2023/12/10 13:11:59;;;;;;;20.87;4.67;;;10.70;99.90;;;;;;5073282;28;20583;-48
2023/12/10 13:14:25;;;;;;;21.80;3.93;;;10.70;99.90;;;;;;5072329;28;20191;-50